createdAt,value
2017-12-16T00:01:11.852Z,4.20
2017-12-16T00:03:38.714Z,4.20
2017-12-16T00:06:05.622Z,4.20
2017-12-16T00:08:32.514Z,4.30
2017-12-16T00:10:59.386Z,4.30
2017-12-16T00:13:27.151Z,4.30
2017-12-16T00:15:54.794Z,4.30
2017-12-16T00:18:21.712Z,4.30
2017-12-16T00:20:48.571Z,4.40
2017-12-16T00:23:15.484Z,4.40
2017-12-16T00:25:43.323Z,4.30
2017-12-16T00:28:11.095Z,4.40
2017-12-16T00:30:38.467Z,4.30
2017-12-16T00:33:06.460Z,4.30
2017-12-16T00:35:33.438Z,4.30
2017-12-16T00:38:00.344Z,4.30
2017-12-16T00:40:27.927Z,4.30
2017-12-16T00:42:54.802Z,4.30
2017-12-16T00:45:21.670Z,4.30
2017-12-16T00:47:48.522Z,4.30
2017-12-16T00:50:17.594Z,4.20
2017-12-16T00:52:44.478Z,4.20
2017-12-16T00:55:11.406Z,4.30
2017-12-16T00:57:38.426Z,4.30
2017-12-16T01:00:05.310Z,4.30
2017-12-16T01:02:32.207Z,4.40
2017-12-16T01:04:59.094Z,4.40
2017-12-16T01:07:25.995Z,4.40
2017-12-16T01:09:52.870Z,4.30
2017-12-16T01:12:20.624Z,4.30
2017-12-16T01:14:48.828Z,4.20
2017-12-16T01:17:15.698Z,4.30
2017-12-16T01:19:42.639Z,4.40
2017-12-16T01:22:09.690Z,4.30
2017-12-16T01:24:36.561Z,4.20
2017-12-16T01:27:03.490Z,4.10
2017-12-16T01:29:30.346Z,4.10
2017-12-16T01:31:57.201Z,4.10
2017-12-16T01:34:36.278Z,4.20
2017-12-16T01:37:15.425Z,4.10
2017-12-16T01:39:42.303Z,4.10
2017-12-16T01:42:09.986Z,4.10
2017-12-16T01:44:37.602Z,4.10
2017-12-16T01:47:04.469Z,4.10
2017-12-16T01:49:31.334Z,4.10
2017-12-16T01:51:59.070Z,3.90
2017-12-16T01:54:25.930Z,3.90
2017-12-16T01:56:53.555Z,3.70
2017-12-16T01:59:20.438Z,3.70
2017-12-16T02:01:48.066Z,3.50
2017-12-16T02:04:14.985Z,3.50
2017-12-16T02:06:41.862Z,3.40
2017-12-16T02:09:08.755Z,3.30
2017-12-16T02:11:35.638Z,3.50
2017-12-16T02:14:02.538Z,3.50
2017-12-16T02:16:30.190Z,3.60
2017-12-16T02:18:57.811Z,3.70
2017-12-16T02:21:25.466Z,3.70
2017-12-16T02:23:52.393Z,3.70
2017-12-16T02:26:19.259Z,3.80
2017-12-16T02:28:46.154Z,3.80
2017-12-16T02:31:13.810Z,3.70
2017-12-16T02:33:41.471Z,3.70
2017-12-16T02:36:08.378Z,3.70
2017-12-16T02:38:35.294Z,3.80
2017-12-16T02:41:02.179Z,3.80
2017-12-16T02:43:29.086Z,3.90
2017-12-16T02:45:56.036Z,3.90
2017-12-16T02:48:23.006Z,4.00
2017-12-16T02:50:49.891Z,4.00
2017-12-16T02:53:17.541Z,4.00
2017-12-16T02:55:45.129Z,4.00
2017-12-16T02:58:12.016Z,3.90
2017-12-16T03:00:38.909Z,3.70
2017-12-16T03:03:05.771Z,3.80
2017-12-16T03:05:32.671Z,3.80
2017-12-16T03:07:59.662Z,3.80
2017-12-16T03:10:26.683Z,3.80
2017-12-16T03:12:53.618Z,3.80
2017-12-16T03:15:20.477Z,3.90
2017-12-16T03:17:49.151Z,3.80
2017-12-16T03:20:16.055Z,3.80
2017-12-16T03:22:43.714Z,3.70
2017-12-16T03:25:10.621Z,3.70
2017-12-16T03:27:37.535Z,3.70
2017-12-16T03:30:05.207Z,3.60
2017-12-16T03:32:32.124Z,3.60
2017-12-16T03:34:59.870Z,3.60
2017-12-16T03:37:26.811Z,3.60
2017-12-16T03:39:53.701Z,3.50
2017-12-16T03:42:20.583Z,3.50
2017-12-16T03:44:47.498Z,3.50
2017-12-16T03:47:14.432Z,3.60
2017-12-16T03:49:42.045Z,3.70
2017-12-16T03:52:08.938Z,3.70
2017-12-16T03:54:36.546Z,3.80
2017-12-16T03:57:03.394Z,3.80
2017-12-16T03:59:30.250Z,3.80
2017-12-16T04:01:57.897Z,3.80
2017-12-16T04:04:24.783Z,3.80
2017-12-16T04:06:51.726Z,3.80
2017-12-16T04:09:18.651Z,3.80
2017-12-16T04:11:46.258Z,3.70
2017-12-16T04:14:13.155Z,3.70
2017-12-16T04:16:40.794Z,3.60
2017-12-16T04:19:07.675Z,3.60
2017-12-16T04:21:34.532Z,3.60
2017-12-16T04:24:01.451Z,3.50
2017-12-16T04:26:29.033Z,3.60
2017-12-16T04:28:55.974Z,3.60
2017-12-16T04:31:22.863Z,3.60
2017-12-16T04:33:49.742Z,3.60
2017-12-16T04:36:16.666Z,3.60
2017-12-16T04:38:43.540Z,3.70
2017-12-16T04:41:10.471Z,3.70
2017-12-16T04:43:38.112Z,3.70
2017-12-16T04:46:05.003Z,3.70
2017-12-16T04:48:31.938Z,3.70
2017-12-16T04:50:58.802Z,3.70
2017-12-16T04:53:25.674Z,3.70
2017-12-16T04:55:52.555Z,3.60
2017-12-16T04:58:19.434Z,3.50
2017-12-16T05:00:46.318Z,3.50
2017-12-16T05:03:13.955Z,3.60
2017-12-16T05:05:40.836Z,3.50
2017-12-16T05:08:08.509Z,3.40
2017-12-16T05:10:35.394Z,3.40
2017-12-16T05:13:02.274Z,3.40
2017-12-16T05:15:29.905Z,3.40
2017-12-16T05:17:56.867Z,3.30
2017-12-16T05:20:23.750Z,3.40
2017-12-16T05:22:50.685Z,3.50
2017-12-16T05:25:17.538Z,3.50
2017-12-16T05:27:44.450Z,3.50
2017-12-16T05:30:11.346Z,3.60
2017-12-16T05:32:38.226Z,3.50
2017-12-16T05:35:05.143Z,3.50
2017-12-16T05:37:32.052Z,3.50
2017-12-16T05:39:58.923Z,3.40
2017-12-16T05:42:25.822Z,3.40
2017-12-16T05:44:52.740Z,3.40
2017-12-16T05:47:19.632Z,3.40
2017-12-16T05:49:47.281Z,3.50
2017-12-16T05:52:14.914Z,3.50
2017-12-16T05:54:41.951Z,3.50
2017-12-16T05:57:08.823Z,3.40
2017-12-16T05:59:35.712Z,3.30
2017-12-16T06:02:02.617Z,3.30
2017-12-16T06:04:29.512Z,3.30
2017-12-16T06:06:56.397Z,3.20
2017-12-16T06:09:24.018Z,3.30
2017-12-16T06:11:51.070Z,3.30
2017-12-16T06:14:17.968Z,3.30
2017-12-16T06:16:45.591Z,3.30
2017-12-16T06:19:12.519Z,3.30
2017-12-16T06:21:39.439Z,3.20
2017-12-16T06:24:06.313Z,3.20
2017-12-16T06:26:33.451Z,3.10
2017-12-16T06:29:00.337Z,3.10
2017-12-16T06:31:27.218Z,3.00
2017-12-16T06:33:54.826Z,3.00
2017-12-16T06:36:21.704Z,3.00
2017-12-16T06:38:48.590Z,3.00
2017-12-16T06:41:15.494Z,3.00
2017-12-16T06:43:42.431Z,3.00
2017-12-16T06:46:10.097Z,2.90
2017-12-16T06:48:37.704Z,2.90
2017-12-16T06:51:04.550Z,2.90
2017-12-16T06:53:31.435Z,2.90
2017-12-16T06:55:59.049Z,2.90
2017-12-16T06:58:25.953Z,2.90
2017-12-16T07:00:52.875Z,3.00
2017-12-16T07:03:20.537Z,2.90
2017-12-16T07:05:47.414Z,2.90
2017-12-16T07:08:14.298Z,3.10
2017-12-16T07:10:41.315Z,3.20
2017-12-16T07:13:08.184Z,3.20
2017-12-16T07:15:35.078Z,3.10
2017-12-16T07:18:02.067Z,3.20
2017-12-16T07:20:30.122Z,3.20
2017-12-16T07:22:57.039Z,3.20
2017-12-16T07:25:23.909Z,3.20
2017-12-16T07:27:50.810Z,3.10
2017-12-16T07:30:18.449Z,3.30
2017-12-16T07:32:45.798Z,3.30
2017-12-16T07:35:12.895Z,3.30
2017-12-16T07:37:39.770Z,3.30
2017-12-16T07:40:06.628Z,3.30
2017-12-16T07:42:34.227Z,3.30
2017-12-16T07:45:01.944Z,3.40
2017-12-16T07:47:29.663Z,3.50
2017-12-16T07:49:56.577Z,3.50
2017-12-16T07:52:23.596Z,3.60
2017-12-16T07:54:50.534Z,3.60
2017-12-16T07:57:17.646Z,3.60
2017-12-16T07:59:45.229Z,3.70
2017-12-16T08:02:12.166Z,3.70
2017-12-16T08:04:39.306Z,3.70
2017-12-16T08:07:06.219Z,3.80
2017-12-16T08:09:34.002Z,3.80
2017-12-16T08:12:01.154Z,3.80
2017-12-16T08:14:28.898Z,3.90
2017-12-16T08:16:55.758Z,3.90
2017-12-16T08:19:23.795Z,4.00
2017-12-16T08:21:50.875Z,4.00
2017-12-16T08:24:17.754Z,4.10
2017-12-16T08:26:44.611Z,4.10
2017-12-16T08:29:11.571Z,4.00
2017-12-16T08:31:38.402Z,4.00
2017-12-16T08:34:05.271Z,4.10
2017-12-16T08:36:32.137Z,4.20
2017-12-16T08:38:59.735Z,4.30
2017-12-16T08:41:26.667Z,4.30
2017-12-16T08:43:54.297Z,4.30
2017-12-16T08:46:21.156Z,4.40
2017-12-16T08:48:48.022Z,4.50
2017-12-16T08:51:14.909Z,4.70
2017-12-16T08:53:41.763Z,4.70
2017-12-16T08:56:08.618Z,4.70
2017-12-16T08:58:36.226Z,4.40
2017-12-16T09:01:04.814Z,4.10
2017-12-16T09:03:31.645Z,4.10
2017-12-16T09:05:58.473Z,4.20
2017-12-16T09:08:25.306Z,4.40
2017-12-16T09:10:52.902Z,4.50
2017-12-16T09:13:19.735Z,4.60
2017-12-16T09:15:46.590Z,4.70
2017-12-16T09:18:13.520Z,4.80
2017-12-16T09:20:40.401Z,4.70
2017-12-16T09:23:07.246Z,4.70
2017-12-16T09:25:34.125Z,4.70
2017-12-16T09:28:01.677Z,4.90
2017-12-16T09:30:29.269Z,5.10
2017-12-16T09:32:56.095Z,5.10
2017-12-16T09:35:22.934Z,5.00
2017-12-16T09:37:49.794Z,5.10
2017-12-16T09:40:16.638Z,5.20
2017-12-16T09:42:43.494Z,5.20
2017-12-16T09:45:10.343Z,5.30
2017-12-16T09:47:37.190Z,5.20
2017-12-16T09:50:04.046Z,5.10
2017-12-16T09:52:30.945Z,5.10
2017-12-16T09:54:57.767Z,5.20
2017-12-16T09:57:24.622Z,5.30
2017-12-16T09:59:51.537Z,5.40
2017-12-16T10:02:19.138Z,5.60
2017-12-16T10:04:46.301Z,5.60
2017-12-16T10:07:13.161Z,5.70
2017-12-16T10:09:40.031Z,5.60
2017-12-16T10:12:06.950Z,5.70
2017-12-16T10:14:33.837Z,5.70
2017-12-16T10:17:00.703Z,5.80
2017-12-16T10:19:27.635Z,5.90
2017-12-16T10:21:54.571Z,6.30
2017-12-16T10:24:21.462Z,6.80
2017-12-16T10:26:48.422Z,7.20
2017-12-16T10:29:16.099Z,7.50
2017-12-16T10:31:43.023Z,7.40
2017-12-16T10:34:09.903Z,7.50
2017-12-16T10:36:36.886Z,7.60
2017-12-16T10:39:03.863Z,7.50
2017-12-16T10:41:30.747Z,7.40
2017-12-16T10:43:58.318Z,6.90
2017-12-16T10:46:25.894Z,6.80
2017-12-16T10:48:52.769Z,6.80
2017-12-16T10:51:19.670Z,6.80
2017-12-16T10:53:46.563Z,7.10
2017-12-16T10:56:13.409Z,7.30
2017-12-16T10:58:40.274Z,8.00
2017-12-16T11:01:07.891Z,8.40
2017-12-16T11:03:34.995Z,8.40
2017-12-16T11:06:02.078Z,9.20
2017-12-16T11:08:28.934Z,10.60
2017-12-16T11:10:55.879Z,12.00
2017-12-16T11:13:22.734Z,12.80
2017-12-16T11:15:49.611Z,13.90
2017-12-16T11:18:16.506Z,14.80
2017-12-16T11:20:43.400Z,14.60
2017-12-16T11:23:11.007Z,14.90
2017-12-16T11:25:37.866Z,14.90
2017-12-16T11:28:04.740Z,15.30
2017-12-16T11:30:32.382Z,14.20
2017-12-16T11:32:59.249Z,14.20
2017-12-16T11:35:26.146Z,14.80
2017-12-16T11:37:53.014Z,14.80
2017-12-16T11:40:19.918Z,14.20
2017-12-16T11:42:46.790Z,13.50
2017-12-16T11:45:13.649Z,12.90
2017-12-16T11:47:40.498Z,12.20
2017-12-16T11:50:08.119Z,9.90
2017-12-16T11:52:34.958Z,9.90
2017-12-16T11:55:01.814Z,9.50
2017-12-16T11:57:28.681Z,9.20
2017-12-16T11:59:56.319Z,8.90
2017-12-16T12:02:23.207Z,8.90
2017-12-16T12:04:50.792Z,8.70
2017-12-16T12:07:17.782Z,8.70
2017-12-16T12:09:44.671Z,8.90
2017-12-16T12:12:11.568Z,8.80
2017-12-16T12:14:39.174Z,8.30
2017-12-16T12:17:05.990Z,8.30
2017-12-16T12:19:33.628Z,8.40
2017-12-16T12:22:00.463Z,8.40
2017-12-16T12:24:27.379Z,8.20
2017-12-16T12:26:54.228Z,8.30
2017-12-16T12:29:21.483Z,8.80
2017-12-16T12:31:48.564Z,9.30
2017-12-16T12:34:15.459Z,10.00
2017-12-16T12:36:42.291Z,11.30
2017-12-16T12:39:09.157Z,11.90
2017-12-16T12:41:36.009Z,12.00
2017-12-16T12:44:02.859Z,11.60
2017-12-16T12:46:29.674Z,11.10
2017-12-16T12:48:56.538Z,10.60
2017-12-16T12:51:23.378Z,10.00
2017-12-16T12:53:50.227Z,9.50
2017-12-16T12:56:17.083Z,9.30
2017-12-16T12:58:43.943Z,8.80
2017-12-16T13:01:10.778Z,8.70
2017-12-16T13:03:37.647Z,8.70
2017-12-16T13:06:05.263Z,9.00
2017-12-16T13:08:32.062Z,8.90
2017-12-16T13:10:58.922Z,9.60
2017-12-16T13:13:25.763Z,10.40
2017-12-16T13:15:52.641Z,11.40
2017-12-16T13:18:19.518Z,12.30
2017-12-16T13:20:47.086Z,14.30
2017-12-16T13:23:13.942Z,14.30
2017-12-16T13:25:41.530Z,15.60
2017-12-16T13:28:08.339Z,15.60
2017-12-16T13:30:35.938Z,13.80
2017-12-16T13:33:02.810Z,13.70
2017-12-16T13:35:29.710Z,12.70
2017-12-16T13:37:56.575Z,11.80
2017-12-16T13:40:23.457Z,11.00
2017-12-16T13:42:50.331Z,10.30
2017-12-16T13:45:17.233Z,9.80
2017-12-16T13:47:44.194Z,9.60
2017-12-16T13:50:11.775Z,9.10
2017-12-16T13:52:38.668Z,9.10
2017-12-16T13:55:05.692Z,8.90
2017-12-16T13:57:32.539Z,8.70
2017-12-16T13:59:59.392Z,8.50
2017-12-16T14:02:26.250Z,8.10
2017-12-16T14:04:53.098Z,7.90
2017-12-16T14:07:20.702Z,7.70
2017-12-16T14:09:47.565Z,7.70
2017-12-16T14:12:14.614Z,7.50
2017-12-16T14:14:41.491Z,7.60
2017-12-16T14:17:08.339Z,7.40
2017-12-16T14:19:36.068Z,7.30
2017-12-16T14:22:02.926Z,7.30
2017-12-16T14:24:29.799Z,7.30
2017-12-16T14:26:58.219Z,7.30
2017-12-16T14:29:25.023Z,7.30
2017-12-16T14:31:51.842Z,7.30
2017-12-16T14:34:19.463Z,7.20
2017-12-16T14:36:46.306Z,7.20
2017-12-16T14:39:13.230Z,7.20
2017-12-16T14:41:40.162Z,7.20
2017-12-16T14:44:07.065Z,7.10
2017-12-16T14:46:33.964Z,7.10
2017-12-16T14:49:00.866Z,7.00
2017-12-16T14:51:27.722Z,7.00
2017-12-16T14:53:55.315Z,6.90
2017-12-16T14:56:22.887Z,6.80
2017-12-16T14:58:49.758Z,6.70
2017-12-16T15:01:16.790Z,6.70
2017-12-16T15:03:43.652Z,6.50
2017-12-16T15:06:10.501Z,6.50
2017-12-16T15:08:37.351Z,6.50
2017-12-16T15:11:04.218Z,6.40
2017-12-16T15:13:31.807Z,6.30
2017-12-16T15:15:58.629Z,6.30
2017-12-16T15:18:26.252Z,6.20
2017-12-16T15:20:53.098Z,6.20
2017-12-16T15:23:19.965Z,6.10
2017-12-16T15:25:47.553Z,5.90
2017-12-16T15:28:14.414Z,5.90
2017-12-16T15:33:19.887Z,5.70
2017-12-16T15:35:46.699Z,5.60
2017-12-16T15:38:13.650Z,5.50
2017-12-16T15:40:40.539Z,5.50
2017-12-16T15:43:07.404Z,5.50
2017-12-16T15:45:35.030Z,5.40
2017-12-16T15:48:01.882Z,5.30
2017-12-16T15:50:29.541Z,5.40
2017-12-16T15:52:56.570Z,5.40
2017-12-16T15:55:23.436Z,5.30
2017-12-16T15:57:50.336Z,5.20
2017-12-16T16:00:17.274Z,5.20
2017-12-16T16:02:44.131Z,5.10
2017-12-16T16:05:11.060Z,5.00
2017-12-16T16:07:37.970Z,5.00
2017-12-16T16:10:05.662Z,4.90
2017-12-16T16:12:33.275Z,4.90
2017-12-16T16:15:00.217Z,4.90
2017-12-16T16:17:27.094Z,4.90
2017-12-16T16:19:53.969Z,4.90
2017-12-16T16:22:20.806Z,5.00
2017-12-16T16:24:47.670Z,5.10
2017-12-16T16:27:14.497Z,5.10
2017-12-16T16:29:41.359Z,5.10
2017-12-16T16:32:08.241Z,5.10
2017-12-16T16:34:35.843Z,5.00
2017-12-16T16:37:02.758Z,5.00
2017-12-16T16:39:30.421Z,5.00
2017-12-16T16:41:58.063Z,5.10
2017-12-16T16:44:25.674Z,5.10
2017-12-16T16:46:52.570Z,5.10
2017-12-16T16:49:20.209Z,5.10
2017-12-16T16:51:47.123Z,5.00
2017-12-16T16:54:14.030Z,4.90
2017-12-16T16:56:41.682Z,4.80
2017-12-16T16:59:09.362Z,4.60
2017-12-16T17:01:36.253Z,4.60
2017-12-16T17:04:03.159Z,4.60
2017-12-16T17:06:30.015Z,4.50
2017-12-16T17:08:56.906Z,4.40
2017-12-16T17:11:23.754Z,4.40
2017-12-16T17:13:50.630Z,4.20
2017-12-16T17:16:18.283Z,4.20
2017-12-16T17:18:45.122Z,4.20
2017-12-16T17:21:11.995Z,4.20
2017-12-16T17:23:38.880Z,4.10
2017-12-16T17:26:05.721Z,4.00
2017-12-16T17:28:34.211Z,4.00
2017-12-16T17:31:01.058Z,4.00
2017-12-16T17:33:28.779Z,3.80
2017-12-16T17:35:55.690Z,3.80
2017-12-16T17:38:22.613Z,3.70
2017-12-16T17:40:50.299Z,3.70
2017-12-16T17:43:17.179Z,3.70
2017-12-16T17:45:45.031Z,3.80
2017-12-16T17:48:12.603Z,3.90
2017-12-16T17:50:39.485Z,3.80
2017-12-16T17:53:06.406Z,3.80
2017-12-16T17:55:33.327Z,3.80
2017-12-16T17:58:00.211Z,3.70
2017-12-16T18:00:27.051Z,3.70
2017-12-16T18:02:53.931Z,3.70
2017-12-16T18:05:21.598Z,3.70
2017-12-16T18:07:48.486Z,3.70
2017-12-16T18:10:15.330Z,3.60
2017-12-16T18:12:42.195Z,3.50
2017-12-16T18:15:09.101Z,3.50
2017-12-16T18:17:35.931Z,3.60
2017-12-16T18:20:03.542Z,3.70
2017-12-16T18:22:30.398Z,3.70
2017-12-16T18:24:57.246Z,3.70
2017-12-16T18:27:24.095Z,3.80
2017-12-16T18:29:51.726Z,3.70
2017-12-16T18:32:18.570Z,3.70
2017-12-16T18:34:45.427Z,3.80
2017-12-16T18:37:12.303Z,3.70
2017-12-16T18:39:39.190Z,3.70
2017-12-16T18:42:06.068Z,3.60
2017-12-16T18:44:33.670Z,3.40
2017-12-16T18:47:00.551Z,3.40
2017-12-16T18:49:27.414Z,3.40
2017-12-16T18:51:55.001Z,3.50
2017-12-16T18:54:21.914Z,3.50
2017-12-16T18:56:49.513Z,3.60
2017-12-16T18:59:16.406Z,3.60
2017-12-16T19:01:43.241Z,3.60
2017-12-16T19:04:10.121Z,3.60
2017-12-16T19:06:38.011Z,3.70
2017-12-16T19:09:04.893Z,3.70
2017-12-16T19:11:31.762Z,3.60
2017-12-16T19:13:59.362Z,3.40
2017-12-16T19:16:26.225Z,3.40
2017-12-16T19:18:53.115Z,3.30
2017-12-16T19:21:19.973Z,3.20
2017-12-16T19:23:46.833Z,3.10
2017-12-16T19:26:13.717Z,3.00
2017-12-16T19:28:40.562Z,2.90
2017-12-16T19:31:07.411Z,2.90
2017-12-16T19:33:35.090Z,2.80
2017-12-16T19:36:01.978Z,2.80
2017-12-16T19:38:28.826Z,2.70
2017-12-16T19:40:55.667Z,2.60
2017-12-16T19:43:22.570Z,2.50
2017-12-16T19:45:49.418Z,2.50
2017-12-16T19:48:17.002Z,2.40
2017-12-16T19:50:43.890Z,2.40
2017-12-16T19:53:10.762Z,2.30
2017-12-16T19:55:38.394Z,2.20
2017-12-16T19:58:05.198Z,2.20
2017-12-16T20:00:32.063Z,2.20
2017-12-16T20:02:58.952Z,2.20
2017-12-16T20:05:25.786Z,2.20
2017-12-16T20:07:53.453Z,2.00
2017-12-16T20:10:21.059Z,1.90
2017-12-16T20:12:47.926Z,1.90
2017-12-16T20:15:14.823Z,1.90
2017-12-16T20:17:41.670Z,1.90
2017-12-16T20:20:08.507Z,1.90
2017-12-16T20:22:35.330Z,1.90
2017-12-16T20:25:02.190Z,1.90
2017-12-16T20:27:29.079Z,2.00
2017-12-16T20:29:55.946Z,1.90
2017-12-16T20:32:22.802Z,1.90
2017-12-16T20:34:49.802Z,1.90
2017-12-16T20:37:16.673Z,1.80
2017-12-16T20:39:43.783Z,1.80
2017-12-16T20:42:10.615Z,1.90
2017-12-16T20:44:37.443Z,1.80
2017-12-16T20:47:04.351Z,1.80
2017-12-16T20:49:31.985Z,1.80
2017-12-16T20:51:58.838Z,1.70
2017-12-16T20:54:25.682Z,1.70
2017-12-16T20:56:52.514Z,1.70
2017-12-16T20:59:19.312Z,1.90
2017-12-16T21:01:46.181Z,1.90
2017-12-16T21:04:13.009Z,1.80
2017-12-16T21:06:40.579Z,1.80
2017-12-16T21:09:07.438Z,1.80
2017-12-16T21:11:34.306Z,1.80
2017-12-16T21:14:01.150Z,1.90
2017-12-16T21:16:27.974Z,1.80
2017-12-16T21:18:54.827Z,1.80
2017-12-16T21:21:21.634Z,1.70
2017-12-16T21:23:48.482Z,1.70
2017-12-16T21:26:15.339Z,1.70
2017-12-16T21:28:42.150Z,1.70
2017-12-16T21:31:09.014Z,1.60
2017-12-16T21:33:35.842Z,1.60
2017-12-16T21:36:02.670Z,1.60
2017-12-16T21:38:29.580Z,1.60
2017-12-16T21:40:56.473Z,1.70
2017-12-16T21:43:23.338Z,1.80
2017-12-16T21:45:50.183Z,1.80
2017-12-16T21:48:16.998Z,1.90
2017-12-16T21:50:43.842Z,2.00
2017-12-16T21:53:10.694Z,2.00
2017-12-16T21:55:37.550Z,2.10
2017-12-16T21:58:04.414Z,2.20
2017-12-16T22:00:31.244Z,2.20
2017-12-16T22:02:58.083Z,2.30
2017-12-16T22:05:24.910Z,2.40
2017-12-16T22:07:51.763Z,2.40
2017-12-16T22:10:18.604Z,2.50
2017-12-16T22:12:45.490Z,2.40
2017-12-16T22:15:12.317Z,2.50
2017-12-16T22:17:39.159Z,2.60
2017-12-16T22:20:06.010Z,2.70
2017-12-16T22:22:33.592Z,2.80
2017-12-16T22:25:00.414Z,2.80
2017-12-16T22:27:28.018Z,3.00
2017-12-16T22:29:54.894Z,3.00
2017-12-16T22:32:21.734Z,3.10
2017-12-16T22:34:48.586Z,3.10
2017-12-16T22:37:15.450Z,3.10
2017-12-16T22:39:43.070Z,3.10
2017-12-16T22:42:09.975Z,3.10
2017-12-16T22:44:36.857Z,3.00
2017-12-16T22:47:03.713Z,3.10
2017-12-16T22:49:30.580Z,3.20
2017-12-16T22:51:57.582Z,3.10
2017-12-16T22:54:24.433Z,3.10
2017-12-16T22:56:51.281Z,3.20
2017-12-16T22:59:18.166Z,3.10
2017-12-16T23:01:45.754Z,2.90
2017-12-16T23:04:12.640Z,2.90
2017-12-16T23:06:39.503Z,3.00
2017-12-16T23:09:07.135Z,3.00
2017-12-16T23:11:33.994Z,3.00
2017-12-16T23:14:00.889Z,3.00
2017-12-16T23:16:27.851Z,3.00
2017-12-16T23:18:54.752Z,3.00
2017-12-16T23:21:22.420Z,3.20
2017-12-16T23:23:50.036Z,3.30
2017-12-16T23:26:17.002Z,3.20
2017-12-16T23:28:44.130Z,3.40
2017-12-16T23:31:11.795Z,3.40
2017-12-16T23:33:38.667Z,3.40
2017-12-16T23:36:06.307Z,3.40
2017-12-16T23:38:33.222Z,3.30
2017-12-16T23:41:00.135Z,3.30
2017-12-16T23:43:27.738Z,3.30
2017-12-16T23:45:54.635Z,3.30
2017-12-16T23:48:22.280Z,3.10
2017-12-16T23:50:49.940Z,3.00
2017-12-16T23:53:16.898Z,3.00
2017-12-16T23:55:44.546Z,2.80
2017-12-16T23:58:12.179Z,2.90
